Time;durP1;ratioP1;P1;durP2;ratioP2;P2;SDS_P1;SDS_P2;PMS_P1;PMS_P2;Temp;Humidity;BMP_temperature;BMP_pressure;BME280_temperature;BME280_humidity;BME280_pressure;Samples;Min_cycle;Max_cycle;Signal;HPM_P1;HPM_P2
2023/08/14 00:00:50;;;;;;;2.70;2.50;;;;;;;;;;5083559;28;20416;-87
2023/08/14 00:03:16;;;;;;;3.30;2.30;;;;;;;;;;5094655;28;20460;-86
2023/08/14 00:05:42;;;;;;;3.47;3.17;;;;;;;;;;5094630;28;20496;-87
2023/08/14 00:08:08;;;;;;;3.47;3.17;;;;;;;;;;5082707;28;20383;-87
2023/08/14 00:10:34;;;;;;;3.50;3.20;;;;;;;;;;5056979;28;20398;-87
2023/08/14 00:13:00;;;;;;;3.30;3.00;;;;;;;;;;5085236;28;20382;-87
2023/08/14 00:15:26;;;;;;;3.72;3.33;;;;;;;;;;5062138;28;20718;-87
2023/08/14 00:17:52;;;;;;;3.05;2.85;;;;;;;;;;5089336;28;20846;-87
2023/08/14 00:20:18;;;;;;;4.07;3.60;;;;;;;;;;5080157;28;20396;-86
2023/08/14 00:22:44;;;;;;;4.10;3.75;;;;;;;;;;5082020;28;20947;-87
2023/08/14 00:25:10;;;;;;;3.75;3.45;;;;;;;;;;5063121;28;20423;-87
2023/08/14 00:27:36;;;;;;;3.72;3.45;;;;;;;;;;5084475;28;20374;-86
2023/08/14 00:30:02;;;;;;;4.13;3.30;;;;;;;;;;5095806;28;20885;-87
2023/08/14 00:32:28;;;;;;;3.75;3.45;;;;;;;;;;5094590;28;20378;-87
2023/08/14 00:34:54;;;;;;;3.80;3.50;;;;;;;;;;5085639;28;20407;-87
2023/08/14 00:37:22;;;;;;;3.72;3.35;;;;;;;;;;5063038;28;20392;-86
2023/08/14 00:39:48;;;;;;;4.82;3.67;;;;;;;;;;5090601;28;20433;-86
2023/08/14 00:42:14;;;;;;;4.28;3.92;;;;;;;;;;5083635;28;20382;-86
2023/08/14 00:44:40;;;;;;;4.18;3.58;;;;;;;;;;5094302;28;20431;-87
2023/08/14 00:47:07;;;;;;;4.20;3.72;;;;;;;;;;5068632;28;20388;-87
2023/08/14 00:49:33;;;;;;;3.92;3.63;;;;;;;;;;5074874;28;20841;-87
2023/08/14 00:52:00;;;;;;;4.10;3.80;;;;;;;;;;5060653;28;20394;-86
2023/08/14 00:54:26;;;;;;;4.20;3.80;;;;;;;;;;5092035;28;20380;-87
2023/08/14 00:56:52;;;;;;;3.92;3.53;;;;;;;;;;5057713;28;20404;-87
2023/08/14 00:59:18;;;;;;;4.30;3.95;;;;;;;;;;5085845;28;20405;-86
2023/08/14 01:01:44;;;;;;;4.57;4.18;;;;;;;;;;5091055;28;20382;-87
2023/08/14 01:04:10;;;;;;;4.88;4.45;;;;;;;;;;5056004;28;20812;-87
2023/08/14 01:06:36;;;;;;;5.28;4.78;;;;;;;;;;5073349;28;20477;-86
2023/08/14 01:09:02;;;;;;;4.57;4.27;;;;;;;;;;5069277;28;20754;-87
2023/08/14 01:11:43;;;;;;;4.30;4.00;;;;;;;;;;5085629;28;20410;-87
2023/08/14 01:14:20;;;;;;;4.03;3.72;;;;;;;;;;5089231;28;20735;-87
2023/08/14 01:17:00;;;;;;;4.65;4.25;;;;;;;;;;5062839;28;20384;-86
2023/08/14 01:19:28;;;;;;;4.70;4.30;;;;;;;;;;5055480;28;20391;-87
2023/08/14 01:22:09;;;;;;;5.40;4.90;;;;;;;;;;5073057;28;20549;-87
2023/08/14 01:25:02;;;;;;;5.20;4.57;;;;;;;;;;5077480;28;20410;-87
2023/08/14 01:27:28;;;;;;;5.78;5.18;;;;;;;;;;5084205;28;20390;-87
2023/08/14 01:29:58;;;;;;;5.93;5.15;;;;;;;;;;5098036;28;20518;-86
2023/08/14 01:32:25;;;;;;;5.70;5.30;;;;;;;;;;5081356;28;20390;-86
2023/08/14 01:34:51;;;;;;;5.18;4.70;;;;;;;;;;5085632;28;20849;-86
2023/08/14 01:37:34;;;;;;;7.78;5.05;;;;;;;;;;5086391;28;20385;-86
2023/08/14 01:40:05;;;;;;;6.15;5.65;;;;;;;;;;5072629;28;20934;-86
2023/08/14 01:42:33;;;;;;;5.75;5.25;;;;;;;;;;5075851;28;20394;-87
2023/08/14 01:45:01;;;;;;;5.55;5.15;;;;;;;;;;5078598;28;20439;-87
2023/08/14 01:47:29;;;;;;;5.28;4.78;;;;;;;;;;5078567;28;20376;-87
2023/08/14 01:49:56;;;;;;;4.90;4.43;;;;;;;;;;5078505;28;20442;-87
2023/08/14 01:52:23;;;;;;;5.78;5.15;;;;;;;;;;5083162;28;20486;-87
2023/08/14 01:54:49;;;;;;;5.50;5.00;;;;;;;;;;5079529;28;20382;-87
2023/08/14 01:57:15;;;;;;;5.23;4.83;;;;;;;;;;5084735;28;20386;-87
2023/08/14 01:59:42;;;;;;;5.30;4.80;;;;;;;;;;5095464;28;20394;-87
2023/08/14 02:02:08;;;;;;;4.90;4.50;;;;;;;;;;5076384;28;20777;-87
2023/08/14 02:04:34;;;;;;;4.93;4.53;;;;;;;;;;5076826;28;20415;-86
2023/08/14 02:07:00;;;;;;;4.80;4.40;;;;;;;;;;5075131;28;20387;-87
2023/08/14 02:09:26;;;;;;;4.72;4.32;;;;;;;;;;5083774;28;20423;-86
2023/08/14 02:11:52;;;;;;;4.78;4.47;;;;;;;;;;5068271;28;20415;-86
2023/08/14 02:14:18;;;;;;;4.35;4.05;;;;;;;;;;5070016;28;20440;-87
2023/08/14 02:16:44;;;;;;;4.60;4.20;;;;;;;;;;5088110;28;20386;-86
2023/08/14 02:19:10;;;;;;;4.40;4.00;;;;;;;;;;5089552;28;20847;-87
2023/08/14 02:21:36;;;;;;;5.47;4.97;;;;;;;;;;5075116;28;20521;-87
2023/08/14 02:24:02;;;;;;;7.53;6.82;;;;;;;;;;5077585;28;20407;-86
2023/08/14 02:26:28;;;;;;;6.50;6.00;;;;;;;;;;5092835;28;20382;-88
2023/08/14 02:28:54;;;;;;;6.38;5.10;;;;;;;;;;5074745;28;20396;-87
2023/08/14 02:31:20;;;;;;;4.93;4.53;;;;;;;;;;5096659;28;20393;-86
2023/08/14 02:33:46;;;;;;;4.90;4.50;;;;;;;;;;5091664;28;20763;-86
2023/08/14 02:36:12;;;;;;;4.95;4.55;;;;;;;;;;5080636;28;20398;-87
2023/08/14 02:38:38;;;;;;;5.32;4.82;;;;;;;;;;5087361;28;20384;-87
2023/08/14 02:41:06;;;;;;;5.20;4.80;;;;;;;;;;5088760;28;20414;-86
2023/08/14 02:43:32;;;;;;;5.10;4.70;;;;;;;;;;5080647;28;20380;-87
2023/08/14 02:45:58;;;;;;;5.30;4.65;;;;;;;;;;5076747;28;20395;-87
2023/08/14 02:48:24;;;;;;;5.00;4.60;;;;;;;;;;5075240;28;20380;-86
2023/08/14 02:50:50;;;;;;;5.38;4.97;;;;;;;;;;5074884;28;20452;-87
2023/08/14 02:53:16;;;;;;;4.97;4.50;;;;;;;;;;5079557;28;20415;-87
2023/08/14 02:55:42;;;;;;;4.82;4.43;;;;;;;;;;5074129;28;20395;-86
2023/08/14 02:58:09;;;;;;;5.55;5.05;;;;;;;;;;5074918;28;20398;-87
2023/08/14 03:00:35;;;;;;;5.05;4.65;;;;;;;;;;5074439;28;20709;-87
2023/08/14 03:03:02;;;;;;;5.03;4.57;;;;;;;;;;5074817;28;20384;-87
2023/08/14 03:05:28;;;;;;;5.25;4.75;;;;;;;;;;5092988;28;20409;-87
2023/08/14 03:07:54;;;;;;;4.50;4.20;;;;;;;;;;5087194;28;20455;-87
2023/08/14 03:10:22;;;;;;;4.80;4.40;;;;;;;;;;5086916;28;20392;-87
2023/08/14 03:12:48;;;;;;;4.90;4.40;;;;;;;;;;5082046;28;20422;-87
2023/08/14 03:15:14;;;;;;;5.40;4.90;;;;;;;;;;5083328;28;20455;-87
2023/08/14 03:17:40;;;;;;;4.80;4.40;;;;;;;;;;5069967;28;20446;-87
2023/08/14 03:20:09;;;;;;;4.72;4.43;;;;;;;;;;5080583;28;20381;-87
2023/08/14 03:22:35;;;;;;;4.93;4.47;;;;;;;;;;5081010;28;20741;-87
2023/08/14 03:25:01;;;;;;;4.38;4.07;;;;;;;;;;5082375;28;20410;-87
2023/08/14 03:27:27;;;;;;;4.60;4.30;;;;;;;;;;5075074;28;20471;-87
2023/08/14 03:29:53;;;;;;;4.50;4.10;;;;;;;;;;5061156;28;20459;-87
2023/08/14 03:32:19;;;;;;;4.60;4.20;;;;;;;;;;5077293;28;20422;-87
2023/08/14 03:34:45;;;;;;;4.70;4.10;;;;;;;;;;5087505;28;20403;-87
2023/08/14 03:37:11;;;;;;;4.80;4.40;;;;;;;;;;5078845;28;20396;-86
2023/08/14 03:39:37;;;;;;;4.63;4.32;;;;;;;;;;5096054;28;20473;-86
2023/08/14 03:42:03;;;;;;;4.80;4.30;;;;;;;;;;5095705;28;20394;-87
2023/08/14 03:44:29;;;;;;;4.70;4.20;;;;;;;;;;5081426;28;20402;-87
2023/08/14 03:46:55;;;;;;;6.70;4.53;;;;;;;;;;5095547;28;20386;-87
2023/08/14 03:49:21;;;;;;;5.05;4.55;;;;;;;;;;5095019;28;20998;-86
2023/08/14 03:51:47;;;;;;;4.83;4.43;;;;;;;;;;5095304;28;20437;-87
2023/08/14 03:54:13;;;;;;;4.30;4.00;;;;;;;;;;5094741;28;20936;-86
2023/08/14 03:56:39;;;;;;;4.90;4.45;;;;;;;;;;5095755;28;20409;-87
2023/08/14 03:59:05;;;;;;;6.18;4.70;;;;;;;;;;5081771;28;20387;-87
2023/08/14 04:01:32;;;;;;;5.80;4.70;;;;;;;;;;5094804;28;20389;-87
2023/08/14 04:03:58;;;;;;;4.60;4.20;;;;;;;;;;5084555;28;20561;-86
2023/08/14 04:06:23;;;;;;;4.20;3.90;;;;;;;;;;5075653;28;20419;-87
2023/08/14 04:08:49;;;;;;;3.97;3.67;;;;;;;;;;5076504;28;20383;-87
2023/08/14 04:11:15;;;;;;;4.40;4.00;;;;;;;;;;5091091;28;20389;-87
2023/08/14 04:13:41;;;;;;;4.80;4.40;;;;;;;;;;5091577;28;20745;-87
2023/08/14 04:16:07;;;;;;;4.95;4.55;;;;;;;;;;5087852;28;20387;-87
2023/08/14 04:18:34;;;;;;;5.13;4.60;;;;;;;;;;5074945;28;20902;-87
2023/08/14 04:21:00;;;;;;;4.90;4.50;;;;;;;;;;5074603;28;20388;-87
2023/08/14 04:23:28;;;;;;;4.35;3.95;;;;;;;;;;5091945;28;20374;-87
2023/08/14 04:25:54;;;;;;;4.57;4.18;;;;;;;;;;5085353;28;20841;-87
2023/08/14 04:28:20;;;;;;;4.63;4.22;;;;;;;;;;5090710;28;20531;-86
2023/08/14 04:30:46;;;;;;;4.30;4.00;;;;;;;;;;5080118;28;20716;-87
2023/08/14 04:33:12;;;;;;;4.18;3.78;;;;;;;;;;5095303;28;20393;-87
2023/08/14 04:35:38;;;;;;;4.82;4.20;;;;;;;;;;5094224;28;20393;-87
2023/08/14 04:38:04;;;;;;;4.75;4.18;;;;;;;;;;5086362;28;20849;-86
2023/08/14 04:40:30;;;;;;;4.20;3.90;;;;;;;;;;5088797;28;20385;-87
2023/08/14 04:42:56;;;;;;;4.65;4.28;;;;;;;;;;5094118;28;20386;-87
2023/08/14 04:45:22;;;;;;;5.15;4.75;;;;;;;;;;5082433;28;20472;-87
2023/08/14 04:47:48;;;;;;;5.13;4.72;;;;;;;;;;5093001;28;20378;-88
2023/08/14 04:50:14;;;;;;;4.60;4.30;;;;;;;;;;5094461;28;20390;-87
2023/08/14 04:52:40;;;;;;;4.70;4.30;;;;;;;;;;5078502;28;20375;-87
2023/08/14 04:55:07;;;;;;;6.22;4.93;;;;;;;;;;5094962;28;20398;-87
2023/08/14 04:57:33;;;;;;;5.20;4.80;;;;;;;;;;5080630;28;20376;-87
2023/08/14 04:59:59;;;;;;;4.75;4.35;;;;;;;;;;5095175;28;20409;-87
2023/08/14 05:02:25;;;;;;;6.03;4.85;;;;;;;;;;5080755;28;20376;-87
2023/08/14 05:04:51;;;;;;;4.47;4.10;;;;;;;;;;5078787;28;20471;-86
2023/08/14 05:07:16;;;;;;;4.70;4.30;;;;;;;;;;5095803;28;20374;-86
2023/08/14 05:09:43;;;;;;;4.80;4.40;;;;;;;;;;5081216;28;20377;-85
2023/08/14 05:12:09;;;;;;;4.97;4.57;;;;;;;;;;5084794;28;20377;-86
2023/08/14 05:14:35;;;;;;;4.55;4.15;;;;;;;;;;5085740;28;20375;-85
2023/08/14 05:17:01;;;;;;;5.37;4.87;;;;;;;;;;5090419;28;20508;-85
2023/08/14 05:19:27;;;;;;;4.83;4.43;;;;;;;;;;5081861;28;20399;-85
2023/08/14 05:21:53;;;;;;;4.80;4.40;;;;;;;;;;5086025;28;20391;-84
2023/08/14 05:24:19;;;;;;;4.22;3.92;;;;;;;;;;5087554;28;20448;-85
2023/08/14 05:26:45;;;;;;;5.07;4.68;;;;;;;;;;5093953;28;20478;-84
2023/08/14 05:29:11;;;;;;;4.75;4.45;;;;;;;;;;5082246;28;20380;-84
2023/08/14 05:31:37;;;;;;;5.22;4.72;;;;;;;;;;5086344;28;20385;-85
2023/08/14 05:34:03;;;;;;;5.70;5.20;;;;;;;;;;5092078;28;20721;-85
2023/08/14 05:36:29;;;;;;;5.53;5.10;;;;;;;;;;5085452;28;20388;-85
2023/08/14 05:38:55;;;;;;;6.10;5.60;;;;;;;;;;5086469;28;20461;-85
2023/08/14 05:41:21;;;;;;;6.10;5.60;;;;;;;;;;5096644;28;20846;-85
2023/08/14 05:43:48;;;;;;;5.43;5.03;;;;;;;;;;5082644;28;20494;-84
2023/08/14 05:46:15;;;;;;;5.85;5.35;;;;;;;;;;5095836;28;20395;-85
2023/08/14 05:48:41;;;;;;;5.47;5.07;;;;;;;;;;5096585;28;20417;-85
2023/08/14 05:51:07;;;;;;;5.20;4.70;;;;;;;;;;5093078;28;20388;-85
2023/08/14 05:53:32;;;;;;;5.07;4.60;;;;;;;;;;5086851;28;20467;-85
2023/08/14 05:55:58;;;;;;;4.90;4.50;;;;;;;;;;5096126;28;20386;-85
2023/08/14 05:58:25;;;;;;;4.32;4.03;;;;;;;;;;5076979;28;20439;-84
2023/08/14 06:00:50;;;;;;;4.55;4.22;;;;;;;;;;5089743;28;20405;-85
2023/08/14 06:03:16;;;;;;;4.88;4.47;;;;;;;;;;5089233;28;20878;-85
2023/08/14 06:05:42;;;;;;;4.10;3.70;;;;;;;;;;5077045;28;20439;-85
2023/08/14 06:08:09;;;;;;;3.88;3.45;;;;;;;;;;5075781;28;20372;-86
2023/08/14 06:10:35;;;;;;;3.88;3.40;;;;;;;;;;5084721;28;20381;-86
2023/08/14 06:13:01;;;;;;;3.38;3.08;;;;;;;;;;5089360;28;20461;-85
2023/08/14 06:15:27;;;;;;;3.40;3.10;;;;;;;;;;5091527;28;20394;-85
2023/08/14 06:17:53;;;;;;;3.47;3.15;;;;;;;;;;5078500;28;20391;-86
2023/08/14 06:20:20;;;;;;;3.47;3.17;;;;;;;;;;5083737;28;20461;-85
2023/08/14 06:22:46;;;;;;;3.88;3.25;;;;;;;;;;5078216;28;20430;-86
2023/08/14 06:25:13;;;;;;;3.70;3.30;;;;;;;;;;5076457;28;20422;-86
2023/08/14 06:27:40;;;;;;;3.80;3.08;;;;;;;;;;5097323;28;20398;-85
2023/08/14 06:30:08;;;;;;;3.50;3.20;;;;;;;;;;5097958;28;20378;-86
2023/08/14 06:32:34;;;;;;;3.45;3.20;;;;;;;;;;5082540;28;20378;-86
2023/08/14 06:35:00;;;;;;;3.45;3.15;;;;;;;;;;5098770;28;20445;-86
2023/08/14 06:37:26;;;;;;;4.25;3.03;;;;;;;;;;5098433;28;20804;-86
2023/08/14 06:39:52;;;;;;;2.90;2.70;;;;;;;;;;5097012;28;20428;-86
2023/08/14 06:42:18;;;;;;;4.70;4.30;;;;;;;;;;5091506;28;20390;-85
2023/08/14 06:44:44;;;;;;;4.10;3.80;;;;;;;;;;5083148;28;20407;-86
2023/08/14 06:47:10;;;;;;;4.57;4.18;;;;;;;;;;5082085;28;20465;-86
2023/08/14 06:49:36;;;;;;;4.18;3.78;;;;;;;;;;5085781;28;20384;-86
2023/08/14 06:52:02;;;;;;;4.78;4.20;;;;;;;;;;5078509;28;20391;-86
2023/08/14 06:54:28;;;;;;;4.40;4.00;;;;;;;;;;5078380;28;20372;-86
2023/08/14 06:56:54;;;;;;;4.03;3.72;;;;;;;;;;5077495;28;20402;-86
2023/08/14 06:59:20;;;;;;;4.07;3.77;;;;;;;;;;5079117;28;20765;-86
2023/08/14 07:01:46;;;;;;;4.07;3.40;;;;;;;;;;5089708;28;20498;-86
2023/08/14 07:04:12;;;;;;;4.45;3.60;;;;;;;;;;5080715;28;20418;-85
2023/08/14 07:06:38;;;;;;;3.58;3.28;;;;;;;;;;5077305;28;20455;-87
2023/08/14 07:09:04;;;;;;;3.45;3.20;;;;;;;;;;5076734;28;20398;-86
2023/08/14 07:11:38;;;;;;;4.45;3.30;;;;;;;;;;5076328;28;20388;-86
2023/08/14 07:14:04;;;;;;;3.70;3.40;;;;;;;;;;5080110;28;20445;-85
2023/08/14 07:16:30;;;;;;;4.20;3.40;;;;;;;;;;5090460;28;20407;-85
2023/08/14 07:18:56;;;;;;;3.90;3.60;;;;;;;;;;5090416;28;20384;-86
2023/08/14 07:21:22;;;;;;;4.70;3.83;;;;;;;;;;5074382;28;20399;-86
2023/08/14 07:23:48;;;;;;;4.80;4.20;;;;;;;;;;5075193;28;20415;-87
2023/08/14 07:26:15;;;;;;;4.15;3.50;;;;;;;;;;5077879;28;20392;-86
2023/08/14 07:28:41;;;;;;;4.95;3.00;;;;;;;;;;5084198;28;20723;-87
2023/08/14 07:31:08;;;;;;;3.35;2.90;;;;;;;;;;5077909;28;20453;-87
2023/08/14 07:33:34;;;;;;;3.40;2.90;;;;;;;;;;5078740;28;20380;-87
2023/08/14 07:36:00;;;;;;;4.32;2.85;;;;;;;;;;5085099;28;20383;-87
2023/08/14 07:38:26;;;;;;;3.10;2.80;;;;;;;;;;5074307;28;20386;-87
2023/08/14 07:40:52;;;;;;;3.42;3.00;;;;;;;;;;5076360;28;20418;-86
2023/08/14 07:43:18;;;;;;;4.90;3.10;;;;;;;;;;5074844;28;20507;-87
2023/08/14 07:45:44;;;;;;;2.83;2.63;;;;;;;;;;5076516;28;20996;-87
2023/08/14 07:48:11;;;;;;;4.23;2.97;;;;;;;;;;5080628;28;20523;-87
2023/08/14 07:50:37;;;;;;;3.47;3.13;;;;;;;;;;5075310;28;20760;-87
2023/08/14 07:53:03;;;;;;;3.80;3.15;;;;;;;;;;5076294;28;20469;-87
2023/08/14 07:55:29;;;;;;;3.63;3.33;;;;;;;;;;5058928;28;20392;-85
2023/08/14 07:57:55;;;;;;;3.30;2.90;;;;;;;;;;5074959;28;20395;-85
2023/08/14 08:00:23;;;;;;;2.77;2.57;;;;;;;;;;5073920;28;20386;-85
2023/08/14 08:02:50;;;;;;;4.28;2.60;;;;;;;;;;5073805;28;20821;-85
2023/08/14 08:05:16;;;;;;;2.92;2.60;;;;;;;;;;5074707;28;20408;-85
2023/08/14 08:07:42;;;;;;;3.47;2.97;;;;;;;;;;5074109;28;20392;-85
2023/08/14 08:10:08;;;;;;;7.20;3.30;;;;;;;;;;5075409;28;20411;-84
2023/08/14 08:12:34;;;;;;;4.95;2.75;;;;;;;;;;5074852;28;20509;-85
2023/08/14 08:15:00;;;;;;;4.07;2.85;;;;;;;;;;5073731;28;20384;-84
2023/08/14 08:17:26;;;;;;;4.05;2.90;;;;;;;;;;5086079;28;20387;-85
2023/08/14 08:19:52;;;;;;;3.50;3.10;;;;;;;;;;5074258;28;20487;-85
2023/08/14 08:22:18;;;;;;;3.30;2.80;;;;;;;;;;5077227;28;20395;-85
2023/08/14 08:24:44;;;;;;;3.22;2.92;;;;;;;;;;5085835;28;20416;-85
2023/08/14 08:27:10;;;;;;;6.27;2.60;;;;;;;;;;5090430;28;20372;-85
2023/08/14 08:29:36;;;;;;;2.90;2.57;;;;;;;;;;5073645;28;20383;-84
2023/08/14 08:32:02;;;;;;;2.50;2.30;;;;;;;;;;5072733;28;20513;-84
2023/08/14 08:34:28;;;;;;;2.80;2.38;;;;;;;;;;5076340;28;20411;-85
2023/08/14 08:36:54;;;;;;;2.95;2.35;;;;;;;;;;5086412;28;20870;-85
2023/08/14 08:39:21;;;;;;;3.20;2.10;;;;;;;;;;5080281;28;20449;-84
2023/08/14 08:41:48;;;;;;;2.88;2.28;;;;;;;;;;5086414;28;20384;-84
2023/08/14 08:44:26;;;;;;;3.03;2.20;;;;;;;;;;5080870;28;20455;-84
2023/08/14 08:46:53;;;;;;;3.92;2.20;;;;;;;;;;5076136;28;20392;-84
2023/08/14 08:49:19;;;;;;;2.25;2.05;;;;;;;;;;5089990;28;20441;-84
2023/08/14 08:51:46;;;;;;;2.30;1.92;;;;;;;;;;5093807;28;20481;-85
2023/08/14 08:54:14;;;;;;;2.08;1.85;;;;;;;;;;5093600;28;20422;-84
2023/08/14 08:56:40;;;;;;;2.40;2.00;;;;;;;;;;5093656;28;20411;-85
2023/08/14 08:59:08;;;;;;;2.50;1.90;;;;;;;;;;5080146;28;20468;-84
2023/08/14 09:01:34;;;;;;;3.10;1.75;;;;;;;;;;5092819;28;20435;-85
2023/08/14 09:04:01;;;;;;;2.25;2.00;;;;;;;;;;5093681;28;20405;-85
2023/08/14 09:06:27;;;;;;;2.25;1.90;;;;;;;;;;5093312;28;20421;-84
2023/08/14 09:08:53;;;;;;;4.47;2.00;;;;;;;;;;5084565;28;20406;-84
2023/08/14 09:11:19;;;;;;;2.17;1.80;;;;;;;;;;5074529;28;20387;-84
2023/08/14 09:13:46;;;;;;;3.00;2.08;;;;;;;;;;5074723;28;20395;-84
2023/08/14 09:16:15;;;;;;;3.05;1.83;;;;;;;;;;5083580;28;20738;-84
2023/08/14 09:18:44;;;;;;;1.90;1.80;;;;;;;;;;5094964;28;20409;-85
2023/08/14 09:21:10;;;;;;;2.10;1.90;;;;;;;;;;5093604;28;20441;-85
2023/08/14 09:23:38;;;;;;;2.28;1.85;;;;;;;;;;5090881;28;20380;-85
2023/08/14 09:26:04;;;;;;;3.30;2.10;;;;;;;;;;5095810;28;20374;-84
2023/08/14 09:28:31;;;;;;;2.28;2.08;;;;;;;;;;5095225;28;20471;-84
2023/08/14 09:31:07;;;;;;;1.83;1.70;;;;;;;;;;5089301;28;20395;-84
2023/08/14 09:33:33;;;;;;;2.25;2.03;;;;;;;;;;5087339;28;20374;-85
2023/08/14 09:35:59;;;;;;;1.98;1.88;;;;;;;;;;5079306;28;20394;-84
2023/08/14 09:38:25;;;;;;;2.30;2.10;;;;;;;;;;5093935;28;20378;-85
2023/08/14 09:40:58;;;;;;;2.38;1.98;;;;;;;;;;5075778;28;20448;-84
2023/08/14 09:43:25;;;;;;;3.45;2.22;;;;;;;;;;5084012;28;20811;-84
2023/08/14 09:45:51;;;;;;;3.45;2.05;;;;;;;;;;5058430;28;20478;-84
2023/08/14 09:48:17;;;;;;;1.90;1.70;;;;;;;;;;5082104;28;20386;-84
2023/08/14 09:50:49;;;;;;;3.88;1.90;;;;;;;;;;5093230;28;20382;-84
2023/08/14 09:53:15;;;;;;;2.65;1.90;;;;;;;;;;5091016;28;20899;-84
2023/08/14 09:55:42;;;;;;;2.42;1.80;;;;;;;;;;5078609;28;20383;-84
2023/08/14 09:58:08;;;;;;;2.22;2.00;;;;;;;;;;5078331;28;20396;-84
2023/08/14 10:00:34;;;;;;;2.15;1.95;;;;;;;;;;5078915;28;20383;-84
2023/08/14 10:03:01;;;;;;;3.80;1.98;;;;;;;;;;5091389;28;20387;-84
2023/08/14 10:05:27;;;;;;;2.75;2.15;;;;;;;;;;5078622;28;20446;-84
2023/08/14 10:07:54;;;;;;;2.50;1.90;;;;;;;;;;5092577;28;20469;-84
2023/08/14 10:10:21;;;;;;;3.65;1.95;;;;;;;;;;5078221;28;20462;-84
2023/08/14 10:13:08;;;;;;;2.67;1.70;;;;;;;;;;5078852;28;20387;-84
2023/08/14 10:15:54;;;;;;;3.07;2.20;;;;;;;;;;5078804;28;20414;-84
2023/08/14 10:18:23;;;;;;;2.28;2.00;;;;;;;;;;5096142;28;20374;-84
2023/08/14 10:20:50;;;;;;;3.67;2.20;;;;;;;;;;5099086;28;20389;-84
2023/08/14 10:23:17;;;;;;;3.38;2.00;;;;;;;;;;5091036;28;20397;-84
2023/08/14 10:25:47;;;;;;;4.00;1.90;;;;;;;;;;5098566;28;20402;-84
2023/08/14 10:28:13;;;;;;;4.97;2.20;;;;;;;;;;5099360;28;20524;-84
2023/08/14 10:30:39;;;;;;;2.55;1.90;;;;;;;;;;5096439;28;20396;-84
2023/08/14 10:33:06;;;;;;;3.75;2.20;;;;;;;;;;5088342;28;20415;-84
2023/08/14 10:35:51;;;;;;;2.58;1.90;;;;;;;;;;5098881;28;20805;-84
2023/08/14 10:38:18;;;;;;;2.45;2.10;;;;;;;;;;5097885;28;20378;-84
2023/08/14 10:40:52;;;;;;;2.83;2.22;;;;;;;;;;5082854;28;20471;-84
2023/08/14 10:43:18;;;;;;;2.50;2.05;;;;;;;;;;5087811;28;20874;-84
2023/08/14 10:45:44;;;;;;;3.30;2.30;;;;;;;;;;5097758;28;20401;-84
2023/08/14 10:48:10;;;;;;;2.30;2.10;;;;;;;;;;5079653;28;20403;-84
2023/08/14 10:50:36;;;;;;;2.65;2.22;;;;;;;;;;5079298;28;20419;-84
2023/08/14 10:53:03;;;;;;;2.10;1.90;;;;;;;;;;5078567;28;20713;-84
2023/08/14 10:55:36;;;;;;;2.08;1.88;;;;;;;;;;5079565;28;20384;-84
2023/08/14 10:58:22;;;;;;;2.97;1.90;;;;;;;;;;5080181;28;20467;-84
2023/08/14 11:00:51;;;;;;;2.30;1.90;;;;;;;;;;5077873;28;20384;-84
2023/08/14 11:03:17;;;;;;;2.40;1.90;;;;;;;;;;5083264;28;20395;-81
2023/08/14 11:05:43;;;;;;;2.00;1.80;;;;;;;;;;5091304;28;20948;-82
2023/08/14 11:08:11;;;;;;;1.90;1.80;;;;;;;;;;5099928;28;20444;-83
2023/08/14 11:10:37;;;;;;;2.53;1.70;;;;;;;;;;5099952;28;20743;-82
2023/08/14 11:13:10;;;;;;;2.72;1.92;;;;;;;;;;5097446;28;20386;-83
2023/08/14 11:15:37;;;;;;;3.13;1.67;;;;;;;;;;5079499;28;20460;-82
2023/08/14 11:18:09;;;;;;;2.78;1.98;;;;;;;;;;5079717;28;20391;-83
2023/08/14 11:20:37;;;;;;;4.85;4.45;;;;;;;;;;5088259;28;20469;-83
2023/08/14 11:23:03;;;;;;;2.25;1.80;;;;;;;;;;5084943;28;20376;-82
2023/08/14 11:25:29;;;;;;;3.58;2.10;;;;;;;;;;5080519;28;20447;-82
2023/08/14 11:27:56;;;;;;;2.20;2.00;;;;;;;;;;5094807;28;20381;-83
2023/08/14 11:30:23;;;;;;;3.30;2.10;;;;;;;;;;5093562;28;20392;-83
2023/08/14 11:32:52;;;;;;;2.88;2.00;;;;;;;;;;5087047;28;20402;-83
2023/08/14 11:35:18;;;;;;;2.22;2.03;;;;;;;;;;5085405;28;20407;-83
2023/08/14 11:37:46;;;;;;;2.30;2.10;;;;;;;;;;5098331;28;20378;-83
2023/08/14 11:40:13;;;;;;;2.08;1.88;;;;;;;;;;5099031;28;20386;-83
2023/08/14 11:42:40;;;;;;;2.05;1.77;;;;;;;;;;5080601;28;20387;-83
2023/08/14 11:45:07;;;;;;;2.90;1.73;;;;;;;;;;5078815;28;20416;-83
2023/08/14 11:47:36;;;;;;;2.45;2.08;;;;;;;;;;5093156;28;20382;-83
2023/08/14 11:50:03;;;;;;;1.88;1.75;;;;;;;;;;5087724;28;20389;-82
2023/08/14 11:52:29;;;;;;;2.83;1.70;;;;;;;;;;5098777;28;20431;-83
2023/08/14 11:54:56;;;;;;;3.83;2.00;;;;;;;;;;5092077;28;20459;-83
2023/08/14 11:57:29;;;;;;;2.10;1.90;;;;;;;;;;5098958;28;20461;-83
2023/08/14 11:59:56;;;;;;;3.30;1.98;;;;;;;;;;5079134;28;20453;-83
2023/08/14 12:02:23;;;;;;;2.35;2.00;;;;;;;;;;5072401;28;20404;-83
2023/08/14 12:04:53;;;;;;;2.75;2.00;;;;;;;;;;5084936;28;20402;-83
2023/08/14 12:07:19;;;;;;;3.15;1.92;;;;;;;;;;5088797;28;20395;-83
2023/08/14 12:09:46;;;;;;;2.80;2.00;;;;;;;;;;5078159;28;20379;-82
2023/08/14 12:12:12;;;;;;;2.30;1.90;;;;;;;;;;5085518;28;20449;-83
2023/08/14 12:14:39;;;;;;;4.70;2.20;;;;;;;;;;5095542;28;20386;-83
2023/08/14 12:17:08;;;;;;;3.30;1.90;;;;;;;;;;5086341;28;20436;-83
2023/08/14 12:19:34;;;;;;;2.95;1.90;;;;;;;;;;5077837;28;20776;-84
2023/08/14 12:22:01;;;;;;;4.03;2.00;;;;;;;;;;5083695;28;20389;-82
2023/08/14 12:24:27;;;;;;;2.25;1.85;;;;;;;;;;5082017;28;20409;-84
2023/08/14 12:26:53;;;;;;;2.10;1.73;;;;;;;;;;5085750;28;20393;-84
2023/08/14 12:29:20;;;;;;;2.40;1.85;;;;;;;;;;5061958;28;20412;-84
2023/08/14 12:31:46;;;;;;;2.08;1.88;;;;;;;;;;5084187;28;20743;-84
2023/08/14 12:34:12;;;;;;;4.40;1.88;;;;;;;;;;5093590;28;20465;-84
2023/08/14 12:36:38;;;;;;;2.80;1.80;;;;;;;;;;5097374;28;20426;-85
2023/08/14 12:39:04;;;;;;;4.27;1.80;;;;;;;;;;5083709;28;20407;-85
2023/08/14 12:41:30;;;;;;;3.23;2.00;;;;;;;;;;5092126;28;20394;-85
2023/08/14 12:43:56;;;;;;;3.30;2.00;;;;;;;;;;5083966;28;20483;-85
2023/08/14 12:46:22;;;;;;;2.10;1.90;;;;;;;;;;5088425;28;20387;-85
2023/08/14 12:48:48;;;;;;;3.28;2.17;;;;;;;;;;5069709;28;20483;-85
2023/08/14 12:51:14;;;;;;;2.95;1.90;;;;;;;;;;5077687;28;20388;-85
2023/08/14 12:53:40;;;;;;;3.60;2.20;;;;;;;;;;5092428;28;20909;-85
2023/08/14 12:56:07;;;;;;;2.65;2.20;;;;;;;;;;5091211;28;20397;-86
2023/08/14 12:58:33;;;;;;;2.40;1.98;;;;;;;;;;5075846;28;20390;-85
2023/08/14 13:00:59;;;;;;;3.38;2.10;;;;;;;;;;5082340;28;20730;-85
2023/08/14 13:03:25;;;;;;;2.80;2.10;;;;;;;;;;5079253;28;20400;-85
2023/08/14 13:05:51;;;;;;;2.13;1.92;;;;;;;;;;5081123;28;20494;-84
2023/08/14 13:08:17;;;;;;;3.17;2.30;;;;;;;;;;5071549;28;20383;-85
2023/08/14 13:10:43;;;;;;;2.97;2.15;;;;;;;;;;5090472;28;20456;-85
2023/08/14 13:13:09;;;;;;;4.70;1.90;;;;;;;;;;5084647;28;20388;-84
2023/08/14 13:15:35;;;;;;;2.53;1.80;;;;;;;;;;5078670;28;20376;-84
2023/08/14 13:18:01;;;;;;;3.30;2.10;;;;;;;;;;5075189;28;20392;-84
2023/08/14 13:20:27;;;;;;;2.90;1.92;;;;;;;;;;5074598;28;20407;-84
2023/08/14 13:22:53;;;;;;;3.53;1.90;;;;;;;;;;5066545;28;20410;-84
2023/08/14 13:25:19;;;;;;;2.40;1.60;;;;;;;;;;5081358;28;20415;-85
2023/08/14 13:27:45;;;;;;;3.33;2.17;;;;;;;;;;5093779;28;20392;-84
2023/08/14 13:30:12;;;;;;;8.57;2.20;;;;;;;;;;5078400;28;20380;-84
2023/08/14 13:32:38;;;;;;;2.70;1.98;;;;;;;;;;5084568;28;20380;-84
2023/08/14 13:35:04;;;;;;;2.88;1.80;;;;;;;;;;5099615;28;20374;-84
2023/08/14 13:37:30;;;;;;;2.42;1.77;;;;;;;;;;5094022;28;20405;-84
2023/08/14 13:39:56;;;;;;;2.78;1.70;;;;;;;;;;5088483;28;20378;-84
2023/08/14 13:42:22;;;;;;;3.25;1.70;;;;;;;;;;5099353;28;20717;-84
2023/08/14 13:44:48;;;;;;;4.03;1.80;;;;;;;;;;5091893;28;20502;-84
2023/08/14 13:47:14;;;;;;;2.83;1.70;;;;;;;;;;5087877;28;20387;-84
2023/08/14 13:49:40;;;;;;;2.43;1.80;;;;;;;;;;5081696;28;20390;-84
2023/08/14 13:52:06;;;;;;;2.60;1.92;;;;;;;;;;5078977;28;20410;-84
2023/08/14 13:54:32;;;;;;;2.28;1.80;;;;;;;;;;5078393;28;20395;-84
2023/08/14 13:56:58;;;;;;;2.17;1.90;;;;;;;;;;5078840;28;20837;-84
2023/08/14 13:59:24;;;;;;;2.15;1.73;;;;;;;;;;5082516;28;20380;-84
2023/08/14 14:01:50;;;;;;;4.65;2.05;;;;;;;;;;5068727;28;20386;-84
2023/08/14 14:04:16;;;;;;;3.93;1.77;;;;;;;;;;5084149;28;20416;-84
2023/08/14 14:06:42;;;;;;;2.33;1.80;;;;;;;;;;5078158;28;20479;-84
2023/08/14 14:09:08;;;;;;;3.65;1.85;;;;;;;;;;5069785;28;20382;-84
2023/08/14 14:11:34;;;;;;;2.03;1.63;;;;;;;;;;5075240;28;20391;-84
2023/08/14 14:14:00;;;;;;;3.47;1.98;;;;;;;;;;5083076;28;20431;-84
2023/08/14 14:16:46;;;;;;;3.72;1.98;;;;;;;;;;5080364;28;20378;-84
2023/08/14 14:19:12;;;;;;;2.37;1.70;;;;;;;;;;5085222;28;20378;-84
2023/08/14 14:21:38;;;;;;;1.85;1.67;;;;;;;;;;5091326;28;20461;-84
2023/08/14 14:24:04;;;;;;;3.30;1.98;;;;;;;;;;5084321;28;20407;-84
2023/08/14 14:26:30;;;;;;;3.30;1.60;;;;;;;;;;5076630;28;20835;-84
2023/08/14 14:28:56;;;;;;;2.63;1.63;;;;;;;;;;5077296;28;20479;-84
2023/08/14 14:31:22;;;;;;;1.83;1.50;;;;;;;;;;5078469;28;20384;-84
2023/08/14 14:33:48;;;;;;;2.55;1.77;;;;;;;;;;5079694;28;20391;-84
2023/08/14 14:36:14;;;;;;;3.37;1.77;;;;;;;;;;5091325;28;20374;-85
2023/08/14 14:38:40;;;;;;;1.85;1.60;;;;;;;;;;5094526;28;20443;-84
2023/08/14 14:41:06;;;;;;;2.40;1.52;;;;;;;;;;5081831;28;20388;-84